Time;durP1;ratioP1;P1;durP2;ratioP2;P2;SDS_P1;SDS_P2;PMS_P1;PMS_P2;Temp;Humidity;BMP_temperature;BMP_pressure;BME280_temperature;BME280_humidity;BME280_pressure;Samples;Min_cycle;Max_cycle;Signal;HPM_P1;HPM_P2
2022/04/26 03:38:32;;;;;;;1.80;1.70;;;;;;;;;;4980805;28;20722;-65
2022/04/26 03:40:59;;;;;;;2.00;1.90;;;;;;;;;;5000279;28;20232;-65
2022/04/26 03:43:26;;;;;;;2.50;2.20;;;;;;;;;;5003717;28;20602;-66
2022/04/26 03:45:54;;;;;;;1.80;1.70;;;;;;;;;;5015683;28;20199;-66
2022/04/26 03:48:21;;;;;;;2.67;2.00;;;;;;;;;;5005130;28;20204;-65
2022/04/26 03:50:48;;;;;;;1.80;1.70;;;;;;;;;;5003207;28;20211;-65
2022/04/26 03:53:15;;;;;;;1.67;1.50;;;;;;;;;;5005020;28;20277;-66
2022/04/26 03:55:42;;;;;;;2.33;2.17;;;;;;;;;;5002881;28;20203;-66
2022/04/26 03:58:10;;;;;;;1.97;1.73;;;;;;;;;;5005886;28;20195;-65
2022/04/26 04:00:38;;;;;;;1.80;1.70;;;;;;;;;;5003396;28;20216;-65
2022/04/26 04:03:05;;;;;;;1.90;1.80;;;;;;;;;;4996089;28;20207;-65
2022/04/26 04:05:45;;;;;;;4.33;1.80;;;;;;;;;;5008211;28;20203;-64
2022/04/26 04:08:34;;;;;;;2.00;1.90;;;;;;;;;;5005599;28;20536;-64
2022/04/26 04:11:03;;;;;;;1.80;1.70;;;;;;;;;;5012453;28;20215;-64
2022/04/26 04:13:31;;;;;;;1.60;1.50;;;;;;;;;;5004072;28;20196;-65
2022/04/26 04:16:03;;;;;;;2.00;1.60;;;;;;;;;;5016904;28;20199;-64
2022/04/26 04:21:19;;;;;;;2.23;1.57;;;;;;;;;;5016751;28;20203;-64
2022/04/26 04:23:52;;;;;;;1.73;1.63;;;;;;;;;;5008673;28;20192;-64
2022/04/26 04:26:22;;;;;;;1.70;1.60;;;;;;;;;;5008286;28;20196;-63
2022/04/26 04:28:53;;;;;;;1.63;1.53;;;;;;;;;;5008980;28;20557;-63
2022/04/26 04:31:21;;;;;;;1.87;1.77;;;;;;;;;;5010125;28;20208;-63
2022/04/26 04:33:50;;;;;;;2.93;1.63;;;;;;;;;;5008190;28;20199;-63
2022/04/26 04:36:17;;;;;;;1.63;1.53;;;;;;;;;;5008728;28;20578;-64
2022/04/26 04:38:44;;;;;;;1.93;1.47;;;;;;;;;;5007129;28;20204;-63
2022/04/26 04:41:11;;;;;;;1.50;1.40;;;;;;;;;;5009032;28;20231;-64
2022/04/26 04:43:38;;;;;;;1.37;1.27;;;;;;;;;;5038005;28;20799;-64
2022/04/26 04:46:06;;;;;;;1.40;1.30;;;;;;;;;;5019648;28;20212;-63
2022/04/26 04:48:33;;;;;;;1.70;1.60;;;;;;;;;;5008407;28;20211;-64
2022/04/26 04:51:00;;;;;;;2.03;1.30;;;;;;;;;;5007285;28;21014;-65
2022/04/26 04:53:27;;;;;;;1.53;1.40;;;;;;;;;;5004964;28;20242;-64
2022/04/26 04:55:54;;;;;;;2.80;1.63;;;;;;;;;;5008256;28;20315;-63
2022/04/26 04:58:21;;;;;;;1.47;1.37;;;;;;;;;;5009370;28;20199;-63
2022/04/26 05:00:49;;;;;;;1.43;1.33;;;;;;;;;;5009151;28;20695;-64
2022/04/26 05:03:16;;;;;;;1.40;1.30;;;;;;;;;;5006253;28;20262;-64
2022/04/26 05:05:46;;;;;;;2.33;1.50;;;;;;;;;;5006476;28;20628;-64
2022/04/26 05:08:17;;;;;;;2.10;1.73;;;;;;;;;;5003882;28;20203;-65
2022/04/26 05:10:47;;;;;;;1.83;1.50;;;;;;;;;;5009361;28;20199;-65
2022/04/26 05:13:14;;;;;;;1.43;1.33;;;;;;;;;;5009285;28;20192;-65
2022/04/26 05:15:44;;;;;;;2.60;1.70;;;;;;;;;;5034985;28;20202;-64
2022/04/26 05:18:12;;;;;;;1.50;1.40;;;;;;;;;;5008839;28;20238;-64
2022/04/26 05:20:39;;;;;;;1.30;1.20;;;;;;;;;;5008752;28;20192;-65
2022/04/26 05:25:53;;;;;;;2.07;1.60;;;;;;;;;;5004424;28;20238;-65
2022/04/26 05:28:20;;;;;;;2.20;1.90;;;;;;;;;;5035694;28;20257;-65
2022/04/26 05:30:56;;;;;;;4.07;1.90;;;;;;;;;;5006918;28;20216;-64
2022/04/26 05:33:25;;;;;;;4.83;2.00;;;;;;;;;;5036962;28;20274;-63
2022/04/26 05:35:52;;;;;;;3.17;2.00;;;;;;;;;;5007593;28;20200;-64
2022/04/26 05:38:22;;;;;;;7.43;1.80;;;;;;;;;;5004111;28;20215;-65
2022/04/26 05:40:50;;;;;;;3.53;2.00;;;;;;;;;;5007628;28;20204;-63
2022/04/26 05:43:17;;;;;;;3.00;1.90;;;;;;;;;;5008191;28;20649;-64
2022/04/26 05:45:44;;;;;;;4.03;2.00;;;;;;;;;;5005852;28;20579;-65
2022/04/26 05:48:13;;;;;;;2.53;1.90;;;;;;;;;;5008152;28;20195;-65
2022/04/26 05:50:41;;;;;;;4.17;1.90;;;;;;;;;;5000833;28;20270;-63
2022/04/26 05:53:08;;;;;;;3.47;1.97;;;;;;;;;;5007201;28;20254;-64
2022/04/26 05:55:41;;;;;;;3.47;2.17;;;;;;;;;;5004881;28;20196;-64
2022/04/26 05:58:24;;;;;;;3.53;1.80;;;;;;;;;;5008007;28;20298;-64
2022/04/26 06:00:54;;;;;;;2.73;1.93;;;;;;;;;;5008408;28;20196;-64
2022/04/26 06:03:21;;;;;;;3.27;1.77;;;;;;;;;;5004539;28;20242;-63
2022/04/26 06:05:55;;;;;;;2.73;2.10;;;;;;;;;;5007775;28;20203;-64
2022/04/26 06:08:27;;;;;;;3.63;2.30;;;;;;;;;;5007446;28;20204;-64
2022/04/26 06:11:01;;;;;;;3.33;2.10;;;;;;;;;;5006863;28;20218;-65
2022/04/26 06:13:33;;;;;;;2.17;1.87;;;;;;;;;;5002694;28;20206;-65
2022/04/26 06:16:05;;;;;;;2.27;1.87;;;;;;;;;;5006650;28;20195;-64
2022/04/26 06:18:37;;;;;;;3.03;1.90;;;;;;;;;;5005614;28;20297;-64
2022/04/26 06:21:05;;;;;;;2.93;1.93;;;;;;;;;;5007920;28;20215;-63
2022/04/26 06:23:34;;;;;;;3.17;1.93;;;;;;;;;;5004037;28;20223;-63
2022/04/26 06:26:03;;;;;;;1.97;1.70;;;;;;;;;;5000237;28;20227;-63
2022/04/26 06:28:33;;;;;;;1.77;1.50;;;;;;;;;;5006326;28;20216;-63
2022/04/26 06:31:02;;;;;;;2.83;1.80;;;;;;;;;;5005303;28;20536;-63
2022/04/26 06:33:34;;;;;;;2.60;1.80;;;;;;;;;;5003532;28;20234;-63
2022/04/26 06:36:01;;;;;;;2.47;1.70;;;;;;;;;;5006115;28;20652;-63
2022/04/26 06:38:32;;;;;;;3.50;2.20;;;;;;;;;;5001184;28;20208;-63
2022/04/26 06:41:05;;;;;;;2.87;1.63;;;;;;;;;;5005828;28;20203;-63
2022/04/26 06:43:34;;;;;;;2.77;1.70;;;;;;;;;;5003512;28;20216;-62
2022/04/26 06:46:05;;;;;;;3.60;1.83;;;;;;;;;;5012605;28;20210;-65
2022/04/26 06:48:37;;;;;;;2.70;1.80;;;;;;;;;;5006973;28;20218;-64
2022/04/26 06:51:08;;;;;;;3.10;2.13;;;;;;;;;;5004857;28;20223;-62
2022/04/26 06:53:37;;;;;;;2.17;1.90;;;;;;;;;;5003981;28;20231;-63
2022/04/26 06:56:08;;;;;;;1.90;1.80;;;;;;;;;;5006514;28;20641;-65
2022/04/26 06:58:39;;;;;;;1.90;1.63;;;;;;;;;;5000017;28;20196;-69
2022/04/26 07:01:11;;;;;;;8.63;2.63;;;;;;;;;;5007127;28;20199;-66
2022/04/26 07:04:05;;;;;;;13.10;4.40;;;;;;;;;;5005170;28;20180;-63
2022/04/26 07:06:50;;;;;;;15.27;4.87;;;;;;;;;;5002852;28;20228;-65
2022/04/26 07:09:20;;;;;;;13.83;4.83;;;;;;;;;;5002752;28;20309;-64
2022/04/26 07:11:47;;;;;;;17.27;4.53;;;;;;;;;;5005208;28;20203;-64
2022/04/26 07:14:14;;;;;;;13.33;4.30;;;;;;;;;;5002396;28;20234;-63
2022/04/26 07:16:48;;;;;;;9.80;4.70;;;;;;;;;;5009704;28;20195;-64
2022/04/26 07:19:17;;;;;;;9.97;4.10;;;;;;;;;;5005007;28;20680;-64
2022/04/26 07:21:48;;;;;;;12.77;4.53;;;;;;;;;;5003019;28;20204;-65
2022/04/26 07:24:33;;;;;;;8.17;3.83;;;;;;;;;;5004539;28;20200;-65
2022/04/26 07:27:00;;;;;;;7.17;3.40;;;;;;;;;;5002684;28;20223;-65
2022/04/26 07:29:28;;;;;;;9.70;3.13;;;;;;;;;;5002825;28;20277;-63
2022/04/26 07:31:55;;;;;;;8.90;3.43;;;;;;;;;;5002149;28;20184;-64
2022/04/26 07:34:24;;;;;;;8.00;3.40;;;;;;;;;;5005496;28;20267;-63
2022/04/26 07:36:53;;;;;;;9.57;3.40;;;;;;;;;;5005965;28;20589;-65
2022/04/26 07:39:20;;;;;;;8.73;3.23;;;;;;;;;;5001206;28;20254;-64
2022/04/26 07:41:50;;;;;;;6.70;3.30;;;;;;;;;;5004755;28;20277;-64
2022/04/26 07:44:21;;;;;;;8.20;3.07;;;;;;;;;;5008164;28;20226;-65
2022/04/26 07:46:52;;;;;;;7.67;3.23;;;;;;;;;;5011975;28;20703;-65
2022/04/26 07:49:20;;;;;;;6.40;3.00;;;;;;;;;;5009631;28;20199;-65
2022/04/26 07:51:50;;;;;;;6.63;2.90;;;;;;;;;;5006430;28;20604;-63
2022/04/26 07:54:19;;;;;;;4.87;2.40;;;;;;;;;;5007615;28;20255;-63
2022/04/26 07:57:01;;;;;;;6.43;2.67;;;;;;;;;;5008021;28;20222;-63
2022/04/26 07:59:28;;;;;;;4.13;2.57;;;;;;;;;;5005746;28;20196;-63
2022/04/26 08:01:58;;;;;;;5.50;2.80;;;;;;;;;;5001711;28;20184;-65
2022/04/26 08:04:30;;;;;;;5.57;2.60;;;;;;;;;;5009299;28;20199;-64
2022/04/26 08:06:59;;;;;;;7.53;2.87;;;;;;;;;;5009067;28;20238;-64
2022/04/26 08:09:28;;;;;;;4.13;2.40;;;;;;;;;;5005164;28;20254;-64
2022/04/26 08:11:59;;;;;;;5.43;2.50;;;;;;;;;;4991893;28;20204;-66
2022/04/26 08:14:29;;;;;;;5.47;2.40;;;;;;;;;;5004141;28;20220;-66
2022/04/26 08:16:59;;;;;;;7.30;2.90;;;;;;;;;;5007887;28;20211;-65
2022/04/26 08:19:30;;;;;;;6.37;2.67;;;;;;;;;;5007107;28;20206;-65
2022/04/26 08:22:01;;;;;;;6.73;2.70;;;;;;;;;;5008268;28;20978;-64
2022/04/26 08:27:30;;;;;;;3.50;2.57;;;;;;;;;;4947850;28;20206;-63
2022/04/26 08:29:58;;;;;;;4.37;2.20;;;;;;;;;;5008182;28;20181;-64
2022/04/26 08:32:28;;;;;;;2.87;2.30;;;;;;;;;;5007409;28;20219;-64
2022/04/26 08:34:58;;;;;;;4.20;2.23;;;;;;;;;;5007855;28;20195;-64
2022/04/26 08:37:25;;;;;;;3.77;2.30;;;;;;;;;;5007133;28;20212;-64
2022/04/26 08:39:55;;;;;;;4.03;2.40;;;;;;;;;;5004262;28;20704;-65
2022/04/26 08:42:35;;;;;;;3.77;2.40;;;;;;;;;;5009274;28;20228;-61
2022/04/26 08:45:11;;;;;;;3.47;2.00;;;;;;;;;;5008957;28;20223;-63
2022/04/26 08:53:11;;;;;;;3.97;2.57;;;;;;;;;;5007719;28;20235;-64
2022/04/26 08:55:42;;;;;;;2.40;2.20;;;;;;;;;;5005809;28;20208;-64
2022/04/26 08:58:11;;;;;;;5.20;2.17;;;;;;;;;;5006782;28;20204;-64
2022/04/26 09:00:42;;;;;;;3.20;2.13;;;;;;;;;;5007377;28;20192;-64
2022/04/26 09:03:12;;;;;;;3.60;2.47;;;;;;;;;;5006841;28;20253;-63
2022/04/26 09:06:04;;;;;;;2.60;2.10;;;;;;;;;;4999867;28;20206;-62
2022/04/26 09:08:32;;;;;;;5.77;3.10;;;;;;;;;;4998870;28;20219;-62
2022/04/26 09:11:00;;;;;;;3.67;2.70;;;;;;;;;;5007838;28;20196;-63
2022/04/26 09:13:28;;;;;;;10.50;3.00;;;;;;;;;;5002931;28;20230;-63
2022/04/26 09:15:58;;;;;;;5.13;2.70;;;;;;;;;;5006886;28;20652;-62
2022/04/26 09:18:30;;;;;;;4.93;2.57;;;;;;;;;;5006294;28;20207;-62
2022/04/26 09:21:02;;;;;;;4.27;2.43;;;;;;;;;;5008014;28;20208;-65
2022/04/26 09:23:30;;;;;;;6.77;2.50;;;;;;;;;;5005502;28;20239;-64
2022/04/26 09:25:57;;;;;;;5.33;2.60;;;;;;;;;;5038335;28;20207;-62
2022/04/26 09:28:29;;;;;;;4.37;2.77;;;;;;;;;;5007257;28;20200;-64
2022/04/26 09:30:57;;;;;;;5.03;2.57;;;;;;;;;;5008603;28;20587;-65
2022/04/26 09:33:38;;;;;;;6.23;2.70;;;;;;;;;;5004816;28;20219;-65
2022/04/26 09:36:06;;;;;;;6.97;2.20;;;;;;;;;;5012275;28;20203;-64
2022/04/26 09:38:33;;;;;;;3.33;2.50;;;;;;;;;;5003871;28;20577;-65
2022/04/26 09:41:04;;;;;;;3.00;2.60;;;;;;;;;;5007657;28;20212;-64
2022/04/26 09:43:32;;;;;;;3.13;1.90;;;;;;;;;;5005581;28;20235;-63
2022/04/26 09:46:00;;;;;;;9.73;2.93;;;;;;;;;;5018478;28;20203;-62
2022/04/26 09:48:28;;;;;;;6.20;2.90;;;;;;;;;;5002946;28;20203;-63
2022/04/26 09:50:57;;;;;;;5.20;2.67;;;;;;;;;;5005625;28;20731;-61
2022/04/26 09:53:25;;;;;;;5.87;2.67;;;;;;;;;;5005730;28;20317;-62
2022/04/26 09:55:56;;;;;;;8.77;2.80;;;;;;;;;;5007088;28;20239;-61
2022/04/26 09:58:26;;;;;;;4.27;2.77;;;;;;;;;;5003386;28;20545;-64
2022/04/26 10:00:55;;;;;;;7.13;2.97;;;;;;;;;;5008235;28;20203;-64
2022/04/26 10:03:29;;;;;;;3.13;2.40;;;;;;;;;;5002244;28;20576;-62
2022/04/26 10:06:01;;;;;;;2.60;2.17;;;;;;;;;;5007678;28;20208;-65
2022/04/26 10:08:30;;;;;;;5.80;2.70;;;;;;;;;;5005062;28;20203;-63
2022/04/26 10:10:58;;;;;;;5.23;2.30;;;;;;;;;;5007659;28;20211;-62
2022/04/26 10:13:31;;;;;;;6.80;2.70;;;;;;;;;;5003454;28;20206;-62
2022/04/26 10:16:07;;;;;;;3.90;2.37;;;;;;;;;;5006964;28;20207;-62
2022/04/26 10:18:34;;;;;;;4.57;2.77;;;;;;;;;;5009739;28;20222;-62
2022/04/26 10:21:05;;;;;;;5.47;2.50;;;;;;;;;;5007691;28;20212;-63
2022/04/26 10:23:51;;;;;;;4.03;2.07;;;;;;;;;;5004788;28;20222;-62
2022/04/26 10:26:26;;;;;;;3.70;2.20;;;;;;;;;;5004271;28;20224;-62
2022/04/26 10:28:53;;;;;;;3.87;2.40;;;;;;;;;;5006496;28;20203;-62
2022/04/26 10:31:35;;;;;;;3.70;2.50;;;;;;;;;;5004389;28;20196;-61
2022/04/26 10:34:23;;;;;;;4.50;2.10;;;;;;;;;;5006349;28;20212;-62
2022/04/26 10:36:51;;;;;;;3.03;2.07;;;;;;;;;;5004043;28;20196;-63
2022/04/26 10:39:18;;;;;;;3.43;2.23;;;;;;;;;;5002567;28;20305;-62
2022/04/26 10:41:46;;;;;;;3.20;2.30;;;;;;;;;;5007036;28;20629;-64
2022/04/26 10:44:14;;;;;;;7.97;2.23;;;;;;;;;;5006107;28;20313;-64
2022/04/26 10:46:41;;;;;;;4.33;2.77;;;;;;;;;;5005133;28;20199;-63
2022/04/26 10:49:23;;;;;;;6.70;2.50;;;;;;;;;;5005192;28;20219;-64
2022/04/26 10:51:57;;;;;;;5.47;2.60;;;;;;;;;;5005976;28;20759;-62
2022/04/26 10:54:43;;;;;;;5.73;2.10;;;;;;;;;;5006079;28;20242;-62
2022/04/26 10:57:10;;;;;;;3.30;2.40;;;;;;;;;;5003405;28;20199;-61
2022/04/26 11:00:01;;;;;;;5.13;2.43;;;;;;;;;;5002673;28;20192;-61
2022/04/26 11:02:31;;;;;;;3.37;2.07;;;;;;;;;;5003249;28;20234;-63
2022/04/26 11:05:11;;;;;;;5.43;2.20;;;;;;;;;;5004966;28;20238;-63
2022/04/26 11:07:40;;;;;;;4.47;2.30;;;;;;;;;;5000725;28;20192;-61
2022/04/26 11:10:10;;;;;;;5.57;2.20;;;;;;;;;;5004037;28;20196;-62
2022/04/26 11:12:41;;;;;;;3.17;2.03;;;;;;;;;;5007399;28;20219;-62
2022/04/26 11:15:13;;;;;;;4.37;2.17;;;;;;;;;;5003814;28;20227;-63
2022/04/26 11:17:45;;;;;;;2.57;2.00;;;;;;;;;;5014997;28;20203;-62
2022/04/26 11:20:22;;;;;;;4.33;2.30;;;;;;;;;;5019351;28;20196;-62
2022/04/26 11:22:53;;;;;;;5.70;1.90;;;;;;;;;;5021782;28;20245;-62
2022/04/26 11:28:18;;;;;;;3.00;1.93;;;;;;;;;;5003268;28;20208;-61
2022/04/26 11:31:08;;;;;;;1.80;1.70;;;;;;;;;;5006375;28;20274;-62
2022/04/26 11:33:36;;;;;;;2.37;2.13;;;;;;;;;;5018698;28;20753;-64
2022/04/26 11:36:04;;;;;;;5.70;1.80;;;;;;;;;;5018190;28;20231;-64
2022/04/26 11:38:32;;;;;;;2.37;1.70;;;;;;;;;;5016765;28;20227;-63
2022/04/26 11:41:04;;;;;;;4.13;2.07;;;;;;;;;;5011130;28;20651;-64
2022/04/26 11:43:35;;;;;;;2.63;1.97;;;;;;;;;;5017583;28;20246;-64
2022/04/26 11:46:10;;;;;;;2.03;1.70;;;;;;;;;;5006724;28;20196;-61
2022/04/26 11:48:48;;;;;;;2.90;1.57;;;;;;;;;;5000005;28;20203;-60
2022/04/26 11:51:19;;;;;;;3.87;2.10;;;;;;;;;;5001648;28;20743;-62
2022/04/26 11:53:49;;;;;;;4.27;2.63;;;;;;;;;;5001819;28;20238;-63
2022/04/26 11:56:26;;;;;;;4.07;2.57;;;;;;;;;;5007502;28;20213;-60
2022/04/26 11:59:02;;;;;;;4.27;2.67;;;;;;;;;;5008434;28;20233;-62
2022/04/26 12:01:36;;;;;;;6.23;2.87;;;;;;;;;;5002564;28;20230;-63
2022/04/26 12:04:12;;;;;;;8.80;2.40;;;;;;;;;;5037885;28;20637;-62
2022/04/26 12:06:47;;;;;;;3.60;2.17;;;;;;;;;;5011437;28;20218;-65
2022/04/26 12:09:17;;;;;;;4.70;2.17;;;;;;;;;;5012319;28;20192;-64
2022/04/26 12:12:05;;;;;;;5.27;2.00;;;;;;;;;;5004110;28;20223;-63
2022/04/26 12:14:38;;;;;;;2.20;1.87;;;;;;;;;;5002572;28;20282;-63
2022/04/26 12:17:18;;;;;;;2.17;1.93;;;;;;;;;;5014300;28;20620;-64
2022/04/26 12:19:51;;;;;;;3.20;2.30;;;;;;;;;;5001313;28;20191;-64
2022/04/26 12:22:28;;;;;;;2.67;1.90;;;;;;;;;;5005855;28;20589;-64
2022/04/26 12:24:59;;;;;;;5.30;1.63;;;;;;;;;;5004540;28;20207;-64
2022/04/26 12:27:27;;;;;;;2.47;1.90;;;;;;;;;;5003360;28;20211;-65
2022/04/26 12:29:54;;;;;;;2.33;1.87;;;;;;;;;;5005797;28;20262;-65
2022/04/26 12:32:28;;;;;;;5.47;2.30;;;;;;;;;;5006270;28;20198;-65
2022/04/26 12:35:12;;;;;;;2.30;2.03;;;;;;;;;;5009239;28;20192;-64
2022/04/26 12:37:42;;;;;;;3.00;2.10;;;;;;;;;;5005720;28;20199;-64
2022/04/26 12:40:17;;;;;;;4.13;2.10;;;;;;;;;;5008866;28;20211;-64
2022/04/26 12:42:46;;;;;;;2.00;1.70;;;;;;;;;;5008157;28;20199;-65
2022/04/26 12:45:25;;;;;;;2.47;1.50;;;;;;;;;;5006161;28;20238;-64
2022/04/26 12:51:29;;;;;;;2.53;1.90;;;;;;;;;;4998889;28;20573;-63
2022/04/26 12:54:12;;;;;;;2.90;2.13;;;;;;;;;;5008064;28;20869;-62
2022/04/26 12:56:40;;;;;;;2.17;1.53;;;;;;;;;;5032371;28;20212;-64
2022/04/26 12:59:18;;;;;;;1.63;1.53;;;;;;;;;;5009641;28;20200;-65
2022/04/26 13:01:48;;;;;;;2.07;1.60;;;;;;;;;;5005653;28;20665;-65
2022/04/26 13:04:20;;;;;;;2.97;1.80;;;;;;;;;;5008567;28;20273;-64
2022/04/26 13:06:52;;;;;;;2.20;1.70;;;;;;;;;;5005973;28;20196;-65
2022/04/26 13:09:34;;;;;;;2.17;1.70;;;;;;;;;;5007192;28;20617;-64
2022/04/26 13:12:05;;;;;;;3.27;1.90;;;;;;;;;;5007605;28;20870;-64
2022/04/26 13:14:35;;;;;;;1.50;1.40;;;;;;;;;;5005569;28;20203;-64
2022/04/26 13:17:12;;;;;;;2.10;1.30;;;;;;;;;;5001573;28;20215;-64
2022/04/26 13:19:43;;;;;;;2.50;1.90;;;;;;;;;;5005474;28;20199;-63
2022/04/26 13:22:16;;;;;;;3.87;1.70;;;;;;;;;;5008463;28;20635;-63
2022/04/26 13:24:46;;;;;;;1.93;1.60;;;;;;;;;;5009096;28;20219;-64
2022/04/26 13:27:16;;;;;;;6.63;2.10;;;;;;;;;;5005076;28;20215;-62
2022/04/26 13:29:50;;;;;;;3.40;1.87;;;;;;;;;;5007532;28;20804;-62
2022/04/26 13:32:17;;;;;;;3.30;1.97;;;;;;;;;;5008349;28;20214;-62
2022/04/26 13:34:48;;;;;;;4.10;1.87;;;;;;;;;;5008502;28;20570;-61
2022/04/26 13:37:18;;;;;;;1.87;1.70;;;;;;;;;;5008455;28;20216;-63
2022/04/26 13:39:53;;;;;;;4.40;1.70;;;;;;;;;;5007455;28;20198;-64
2022/04/26 13:42:24;;;;;;;3.10;1.60;;;;;;;;;;5007642;28;20774;-65
2022/04/26 13:44:55;;;;;;;2.47;1.60;;;;;;;;;;4998164;28;20224;-67
2022/04/26 13:47:26;;;;;;;2.40;1.50;;;;;;;;;;5003495;28;20555;-64
2022/04/26 13:49:53;;;;;;;2.87;1.70;;;;;;;;;;5005311;28;20208;-64
2022/04/26 13:52:23;;;;;;;3.20;2.17;;;;;;;;;;5007697;28;20203;-64
2022/04/26 13:54:51;;;;;;;6.13;1.73;;;;;;;;;;5035084;28;20238;-66
2022/04/26 13:57:19;;;;;;;2.87;1.57;;;;;;;;;;5004837;28;20204;-65
2022/04/26 13:59:48;;;;;;;2.83;2.07;;;;;;;;;;5004316;28;20220;-64
2022/04/26 14:02:21;;;;;;;2.67;1.77;;;;;;;;;;5004444;28;20690;-64
2022/04/26 14:04:52;;;;;;;2.30;1.67;;;;;;;;;;5007414;28;20219;-62
2022/04/26 14:07:20;;;;;;;5.27;1.80;;;;;;;;;;5007432;28;20624;-63
2022/04/26 14:09:49;;;;;;;2.93;1.80;;;;;;;;;;5008473;28;21772;-64
2022/04/26 14:12:19;;;;;;;2.07;1.57;;;;;;;;;;5009516;28;20215;-65
2022/04/26 14:23:18;;;;;;;3.23;1.80;;;;;;;;;;5008567;28;20199;-64
2022/04/26 14:25:45;;;;;;;1.70;1.60;;;;;;;;;;5002950;28;20224;-63
2022/04/26 14:28:12;;;;;;;3.17;1.60;;;;;;;;;;4989535;28;20261;-62
2022/04/26 14:30:39;;;;;;;2.93;1.70;;;;;;;;;;5007175;28;20265;-61
2022/04/26 14:33:09;;;;;;;1.80;1.70;;;;;;;;;;5007435;28;20203;-63
2022/04/26 14:35:36;;;;;;;2.10;1.47;;;;;;;;;;5006643;28;20227;-63
2022/04/26 14:38:04;;;;;;;1.60;1.50;;;;;;;;;;5008138;28;20224;-62
2022/04/26 14:40:32;;;;;;;1.73;1.60;;;;;;;;;;5008351;28;20191;-64
2022/04/26 14:43:04;;;;;;;1.53;1.43;;;;;;;;;;5020233;28;20212;-63
2022/04/26 14:45:32;;;;;;;3.73;1.40;;;;;;;;;;5002846;28;20219;-63
2022/04/26 14:48:03;;;;;;;1.30;1.20;;;;;;;;;;5023614;28;20601;-62
2022/04/26 14:50:32;;;;;;;2.47;1.93;;;;;;;;;;5018619;28;20227;-60
2022/04/26 14:53:00;;;;;;;1.87;1.30;;;;;;;;;;5009366;28;20203;-61
2022/04/26 14:55:51;;;;;;;1.93;1.40;;;;;;;;;;5005272;28;20206;-61
2022/04/26 14:58:19;;;;;;;2.87;1.90;;;;;;;;;;5025038;28;20210;-63
2022/04/26 15:00:48;;;;;;;3.07;1.80;;;;;;;;;;5006276;28;20204;-63
2022/04/26 15:03:21;;;;;;;1.90;1.70;;;;;;;;;;5004246;28;20220;-63
2022/04/26 15:05:49;;;;;;;2.80;1.70;;;;;;;;;;5005628;28;20230;-61
2022/04/26 15:11:06;;;;;;;6.10;2.30;;;;;;;;;;5004424;28;20190;-62
2022/04/26 15:16:39;;;;;;;9.63;3.80;;;;;;;;;;5006324;28;20200;-61
2022/04/26 15:19:16;;;;;;;8.10;3.90;;;;;;;;;;5027503;28;20179;-61
2022/04/26 15:21:48;;;;;;;8.53;4.50;;;;;;;;;;5008552;28;20385;-63
2022/04/26 15:24:19;;;;;;;10.60;4.77;;;;;;;;;;5006941;28;20228;-62
2022/04/26 15:26:46;;;;;;;9.43;4.50;;;;;;;;;;5007673;28;20640;-62
2022/04/26 15:29:17;;;;;;;19.07;5.03;;;;;;;;;;5006897;28;20196;-62
2022/04/26 15:31:47;;;;;;;9.57;4.07;;;;;;;;;;5003045;28;20202;-61
2022/04/26 15:34:19;;;;;;;7.77;3.93;;;;;;;;;;5005804;28;20564;-61
2022/04/26 15:36:51;;;;;;;6.50;3.93;;;;;;;;;;5006673;28;20696;-62
2022/04/26 15:39:20;;;;;;;8.70;4.00;;;;;;;;;;5024253;28;20624;-62
2022/04/26 15:41:51;;;;;;;11.47;4.33;;;;;;;;;;5011243;28;20184;-62
2022/04/26 15:44:22;;;;;;;7.27;3.73;;;;;;;;;;5005988;28;20247;-62
2022/04/26 15:46:59;;;;;;;7.60;3.87;;;;;;;;;;5006257;28;20199;-62
2022/04/26 15:49:28;;;;;;;9.23;3.50;;;;;;;;;;5000843;28;20291;-62
2022/04/26 15:51:59;;;;;;;8.07;3.70;;;;;;;;;;5004413;28;20661;-63
2022/04/26 15:54:32;;;;;;;7.83;4.40;;;;;;;;;;5003299;28;20235;-62
2022/04/26 15:57:01;;;;;;;5.67;3.53;;;;;;;;;;5002112;28;20215;-61
2022/04/26 15:59:33;;;;;;;6.67;4.00;;;;;;;;;;5002949;28;20218;-61
2022/04/26 16:02:04;;;;;;;7.20;3.67;;;;;;;;;;5004143;28;20505;-62
2022/04/26 16:04:35;;;;;;;8.03;4.33;;;;;;;;;;5004029;28;20885;-63
2022/04/26 16:07:09;;;;;;;6.97;3.70;;;;;;;;;;5004306;28;20269;-63
2022/04/26 16:20:43;;;;;;;5.63;3.10;;;;;;;;;;5008823;28;20203;-63
2022/04/26 16:23:10;;;;;;;6.90;3.43;;;;;;;;;;5008138;28;20204;-62
2022/04/26 16:25:37;;;;;;;5.50;3.40;;;;;;;;;;5002813;28;20243;-63
2022/04/26 16:28:07;;;;;;;5.63;2.97;;;;;;;;;;5019770;28;20208;-63
2022/04/26 16:30:35;;;;;;;6.10;3.23;;;;;;;;;;5008184;28;20188;-60
2022/04/26 16:33:05;;;;;;;19.40;4.00;;;;;;;;;;5006777;28;20592;-62
2022/04/26 16:35:36;;;;;;;23.20;4.73;;;;;;;;;;5005885;28;20215;-62
2022/04/26 16:38:03;;;;;;;30.07;5.23;;;;;;;;;;5006736;28;20250;-62
2022/04/26 16:40:37;;;;;;;20.37;4.67;;;;;;;;;;5003321;28;20290;-62
2022/04/26 16:43:07;;;;;;;17.60;4.57;;;;;;;;;;5005758;28;20699;-62
2022/04/26 16:45:40;;;;;;;13.97;4.53;;;;;;;;;;5004587;28;20207;-62
2022/04/26 16:48:12;;;;;;;13.03;4.50;;;;;;;;;;5012677;28;20257;-65
2022/04/26 16:50:42;;;;;;;17.57;4.30;;;;;;;;;;5005641;28;20219;-62
2022/04/26 16:53:11;;;;;;;13.73;4.67;;;;;;;;;;5008043;28;20228;-61
2022/04/26 16:55:40;;;;;;;10.17;4.23;;;;;;;;;;5004318;28;20188;-61
2022/04/26 16:58:18;;;;;;;15.27;4.13;;;;;;;;;;5008491;28;20208;-61
2022/04/26 17:00:47;;;;;;;10.50;4.47;;;;;;;;;;5007856;28;20203;-61
2022/04/26 17:03:18;;;;;;;12.33;4.60;;;;;;;;;;5005976;28;20214;-61
2022/04/26 17:05:47;;;;;;;11.17;3.67;;;;;;;;;;5003411;28;20231;-63
2022/04/26 17:08:19;;;;;;;8.97;3.90;;;;;;;;;;5006326;28;20216;-62
2022/04/26 17:11:41;;;;;;;7.73;3.50;;;;;;;;;;5006656;28;20573;-64
2022/04/26 17:13:48;;;;;;;8.33;4.07;;;;;;;;;;5001530;28;20219;-63
2022/04/26 17:16:21;;;;;;;6.77;3.33;;;;;;;;;;5007594;28;20218;-65
2022/04/26 17:18:56;;;;;;;10.93;3.40;;;;;;;;;;5005174;28;20212;-61
2022/04/26 17:21:26;;;;;;;8.23;3.80;;;;;;;;;;5004461;28;20200;-63
2022/04/26 17:24:01;;;;;;;7.23;3.17;;;;;;;;;;5005044;28;20207;-62
2022/04/26 17:26:34;;;;;;;9.33;3.57;;;;;;;;;;5004630;28;20270;-61
2022/04/26 17:29:13;;;;;;;8.30;3.53;;;;;;;;;;5007090;28;20478;-61
2022/04/26 17:31:50;;;;;;;5.77;2.70;;;;;;;;;;5004404;28;20202;-61
2022/04/26 17:34:23;;;;;;;5.90;2.90;;;;;;;;;;5005643;28;20214;-61
2022/04/26 17:36:55;;;;;;;6.30;3.00;;;;;;;;;;5005852;28;20204;-62
2022/04/26 17:39:41;;;;;;;7.20;3.10;;;;;;;;;;5001358;28;21027;-62
2022/04/26 17:42:15;;;;;;;6.50;3.17;;;;;;;;;;5006212;28;20649;-60
2022/04/26 17:44:47;;;;;;;4.57;2.97;;;;;;;;;;5007409;28;20216;-61
2022/04/26 17:47:19;;;;;;;5.03;2.67;;;;;;;;;;5006309;28;20257;-60
2022/04/26 17:50:00;;;;;;;3.83;2.77;;;;;;;;;;5005534;28;20223;-60
2022/04/26 17:52:32;;;;;;;4.57;2.67;;;;;;;;;;5003722;28;20203;-61
2022/04/26 17:57:50;;;;;;;4.03;2.63;;;;;;;;;;5008843;28;20307;-59
2022/04/26 18:00:19;;;;;;;5.07;2.67;;;;;;;;;;5005084;28;20204;-60
2022/04/26 18:02:48;;;;;;;4.10;2.53;;;;;;;;;;5003655;28;20211;-62
2022/04/26 18:05:19;;;;;;;6.70;2.60;;;;;;;;;;5005037;28;20235;-59
2022/04/26 18:07:51;;;;;;;2.60;2.30;;;;;;;;;;5007613;28;20250;-60
2022/04/26 18:10:22;;;;;;;4.40;2.33;;;;;;;;;;5006786;28;20203;-61
2022/04/26 18:12:55;;;;;;;3.60;2.30;;;;;;;;;;5005236;28;20637;-61
2022/04/26 18:15:25;;;;;;;3.57;2.77;;;;;;;;;;5000726;28;20203;-60
2022/04/26 18:17:54;;;;;;;3.80;2.47;;;;;;;;;;5010559;28;20626;-61
2022/04/26 18:20:34;;;;;;;3.17;2.50;;;;;;;;;;5034845;28;20625;-62
2022/04/26 18:23:06;;;;;;;3.83;2.40;;;;;;;;;;5005122;28;20296;-62
2022/04/26 18:28:31;;;;;;;4.50;2.70;;;;;;;;;;5006768;28;20206;-62
2022/04/26 18:31:01;;;;;;;3.13;2.40;;;;;;;;;;5002831;28;20196;-61
2022/04/26 18:33:28;;;;;;;3.37;2.23;;;;;;;;;;5001410;28;20191;-60
2022/04/26 18:35:59;;;;;;;4.33;2.73;;;;;;;;;;5004243;28;20245;-61
2022/04/26 18:38:30;;;;;;;3.37;2.23;;;;;;;;;;5009889;28;20217;-61
2022/04/26 18:40:58;;;;;;;3.50;2.23;;;;;;;;;;5006770;28;20192;-61
2022/04/26 18:43:28;;;;;;;3.43;2.37;;;;;;;;;;5003692;28;20200;-61
2022/04/26 18:45:58;;;;;;;3.00;1.73;;;;;;;;;;5005100;28;20758;-61
2022/04/26 18:48:26;;;;;;;3.03;2.30;;;;;;;;;;5008212;28;20563;-61
2022/04/26 18:51:01;;;;;;;4.80;2.30;;;;;;;;;;5007921;28;20216;-59
2022/04/26 18:53:42;;;;;;;4.73;2.50;;;;;;;;;;5004614;28;20866;-59
2022/04/26 18:56:11;;;;;;;3.17;2.10;;;;;;;;;;5003820;28;20208;-59
2022/04/26 18:58:41;;;;;;;4.07;2.17;;;;;;;;;;5008044;28;20214;-59
2022/04/26 19:01:15;;;;;;;3.13;2.13;;;;;;;;;;5004654;28;20211;-59
2022/04/26 19:03:47;;;;;;;2.37;1.80;;;;;;;;;;4999228;28;20224;-59
2022/04/26 19:06:20;;;;;;;2.40;1.90;;;;;;;;;;5006349;28;20222;-59
2022/04/26 19:08:48;;;;;;;3.57;2.23;;;;;;;;;;5011998;28;20199;-60
2022/04/26 19:14:05;;;;;;;2.13;1.93;;;;;;;;;;5001712;28;20586;-59
2022/04/26 19:16:32;;;;;;;3.90;2.10;;;;;;;;;;5007330;28;20554;-59
2022/04/26 19:19:02;;;;;;;4.53;2.30;;;;;;;;;;5011144;28;20207;-59
2022/04/26 19:21:33;;;;;;;2.33;2.03;;;;;;;;;;5001785;28;20216;-59
2022/04/26 19:24:04;;;;;;;2.40;2.00;;;;;;;;;;4999143;28;20341;-59
2022/04/26 19:26:33;;;;;;;3.47;2.10;;;;;;;;;;5002855;28;20235;-59
2022/04/26 19:29:08;;;;;;;4.07;2.03;;;;;;;;;;5002833;28;20200;-59
2022/04/26 19:31:39;;;;;;;2.97;1.77;;;;;;;;;;5000560;28;20233;-59
2022/04/26 19:34:09;;;;;;;3.70;2.10;;;;;;;;;;5003145;28;20544;-59
2022/04/26 19:36:38;;;;;;;3.73;1.70;;;;;;;;;;5004191;28;20198;-60
2022/04/26 19:39:08;;;;;;;2.60;1.70;;;;;;;;;;5002858;28;20195;-60